Time;durP1;ratioP1;P1;durP2;ratioP2;P2;SDS_P1;SDS_P2;PMS_P1;PMS_P2;Temp;Humidity;BMP_temperature;BMP_pressure;BME280_temperature;BME280_humidity;BME280_pressure;Samples;Min_cycle;Max_cycle;Signal;HPM_P1;HPM_P2
2023/03/17 00:01:18;;;;;;;7.50;4.10;;;4.70;99.90;;;4.59;68.97;95123.97;5077945;28;20462;-58
2023/03/17 00:03:46;;;;;;;4.03;3.40;;;4.80;99.90;;;4.60;69.04;95130.88;5073892;28;20612;-55
2023/03/17 00:06:28;;;;;;;4.03;3.70;;;4.80;99.90;;;4.63;68.81;95129.81;5072828;28;20453;-60
2023/03/17 00:08:56;;;;;;;4.40;4.00;;;4.80;99.90;;;4.63;68.58;95127.22;5072945;28;20448;-55
2023/03/17 00:11:23;;;;;;;3.67;3.33;;;4.80;99.90;;;4.64;68.60;95129.72;5072166;28;20481;-60
2023/03/17 00:13:51;;;;;;;4.43;4.03;;;4.80;99.90;;;4.63;68.53;95130.69;5057851;28;20447;-61
2023/03/17 00:16:20;;;;;;;4.43;4.03;;;4.80;99.90;;;4.62;68.86;95136.81;5078200;28;20462;-61
2023/03/17 00:18:48;;;;;;;4.27;3.97;;;4.80;99.90;;;4.61;68.89;95137.72;5064524;28;20612;-60
2023/03/17 00:21:21;;;;;;;3.77;3.47;;;4.80;99.90;;;4.59;68.71;95131.78;5065911;28;20447;-61
2023/03/17 00:23:50;;;;;;;3.73;3.43;;;4.80;99.90;;;4.56;68.73;95133.78;5075929;28;20486;-61
2023/03/17 00:26:18;;;;;;;3.87;3.40;;;4.70;99.90;;;4.52;68.78;95133.09;5074316;28;20550;-55
2023/03/17 00:28:45;;;;;;;4.10;3.80;;;4.70;99.90;;;4.51;68.90;95135.81;5062338;28;20464;-56
2023/03/17 00:31:14;;;;;;;3.40;3.13;;;4.70;99.90;;;4.50;68.69;95137.59;5067103;28;20452;-61
2023/03/17 00:33:41;;;;;;;4.53;3.63;;;4.70;99.90;;;4.49;68.65;95134.16;5075083;28;20466;-61
2023/03/17 00:36:10;;;;;;;4.20;3.80;;;4.60;99.90;;;4.51;68.73;95134.06;5069049;28;20477;-55
2023/03/17 00:38:39;;;;;;;3.73;3.07;;;4.70;99.90;;;4.51;68.95;95141.00;5070052;28;20457;-55
2023/03/17 00:41:06;;;;;;;3.47;3.23;;;4.70;99.90;;;4.52;68.95;95137.50;5073389;28;20466;-54
2023/03/17 00:43:33;;;;;;;3.37;3.07;;;4.60;99.90;;;4.53;68.98;95136.56;5068887;28;20490;-54
2023/03/17 00:46:01;;;;;;;3.50;3.20;;;4.70;99.90;;;4.54;69.17;95131.25;5056862;28;20504;-53
2023/03/17 00:48:29;;;;;;;3.10;2.90;;;4.70;99.90;;;4.53;68.56;95129.56;5074643;28;22077;-62
2023/03/17 00:50:57;;;;;;;3.33;3.13;;;4.70;99.90;;;4.54;68.91;95131.25;5070359;28;20486;-54
2023/03/17 00:53:24;;;;;;;3.13;3.03;;;4.70;99.90;;;4.53;68.87;95126.97;5069260;28;20482;-62
2023/03/17 00:55:53;;;;;;;5.63;3.97;;;4.70;99.90;;;4.53;68.83;95128.75;5074280;28;20516;-60
2023/03/17 00:58:24;;;;;;;3.13;2.93;;;4.70;99.90;;;4.54;68.91;95135.63;5073551;28;21010;-55
2023/03/17 01:00:52;;;;;;;3.50;3.30;;;4.70;99.90;;;4.53;69.05;95137.41;5060793;28;20973;-54
2023/03/17 01:03:19;;;;;;;3.67;3.37;;;4.70;99.90;;;4.52;68.52;95138.31;5075269;28;20529;-56
2023/03/17 01:05:46;;;;;;;3.37;3.17;;;4.70;99.90;;;4.51;68.43;95151.44;5076191;28;20513;-55
2023/03/17 01:08:14;;;;;;;3.50;3.20;;;4.70;99.90;;;4.49;68.77;95134.16;5070564;28;20486;-57
2023/03/17 01:10:41;;;;;;;3.63;3.43;;;4.60;99.90;;;4.50;68.56;95132.38;5063596;28;20462;-61
2023/03/17 01:13:12;;;;;;;3.33;2.67;;;4.60;99.90;;;4.52;68.50;95137.50;5070670;28;20698;-61
2023/03/17 01:15:40;;;;;;;2.87;2.73;;;4.70;99.90;;;4.52;68.53;95138.31;5071522;28;20718;-55
2023/03/17 01:18:07;;;;;;;3.20;3.00;;;4.70;99.90;;;4.56;68.70;95138.97;5065961;28;20486;-62
2023/03/17 01:20:35;;;;;;;3.47;3.17;;;4.70;99.90;;;4.56;68.90;95138.97;5080252;28;20471;-55
2023/03/17 01:23:02;;;;;;;3.57;3.27;;;4.70;99.90;;;4.57;68.94;95138.88;5070872;28;21008;-54
2023/03/17 01:25:30;;;;;;;3.20;3.00;;;4.70;99.90;;;4.58;68.81;95143.13;5066884;28;20462;-61
2023/03/17 01:27:58;;;;;;;3.70;3.40;;;4.70;99.90;;;4.60;68.83;95140.44;5073374;28;20832;-62
2023/03/17 01:30:28;;;;;;;3.60;3.40;;;4.80;99.90;;;4.61;68.31;95142.13;5076538;28;20466;-54
2023/03/17 01:32:56;;;;;;;2.90;2.70;;;4.80;99.90;;;4.61;68.55;95140.34;5067381;28;20554;-56
2023/03/17 01:35:24;;;;;;;3.00;2.83;;;4.80;99.90;;;4.61;68.91;95140.34;5073225;28;20463;-60
2023/03/17 01:37:52;;;;;;;3.67;3.37;;;4.70;99.90;;;4.60;68.29;95136.09;5073835;28;20546;-56
2023/03/17 01:40:22;;;;;;;3.20;3.00;;;4.80;99.90;;;4.60;68.62;95143.91;5067649;28;20482;-55
2023/03/17 01:42:53;;;;;;;3.27;3.07;;;4.70;99.90;;;4.61;68.59;95148.16;5067745;28;20478;-56
2023/03/17 01:46:26;;;;;;;5.03;3.13;;;4.80;99.90;;;4.62;68.29;95144.63;5074650;28;20653;-60
2023/03/17 01:49:08;;;;;;;5.47;3.17;;;4.80;99.90;;;4.60;68.36;95148.25;5067163;28;20520;-56
2023/03/17 01:51:39;;;;;;;3.13;2.93;;;4.80;99.90;;;4.59;68.12;95146.59;5075157;28;20474;-56
2023/03/17 01:54:09;;;;;;;3.53;3.23;;;4.70;99.90;;;4.58;67.96;95155.34;5076059;28;20451;-61
2023/03/17 01:56:36;;;;;;;7.63;3.30;;;4.70;99.90;;;4.58;68.17;95145.75;5057671;28;21030;-64
2023/03/17 01:59:06;;;;;;;3.30;3.10;;;4.80;99.90;;;4.59;67.93;95159.63;5071000;28;20571;-56
2023/03/17 02:01:37;;;;;;;3.73;3.43;;;4.70;99.90;;;4.58;67.85;95157.94;5069548;28;20503;-54
2023/03/17 02:04:06;;;;;;;3.57;3.37;;;4.70;99.90;;;4.58;68.84;95157.94;5058809;28;20470;-60
2023/03/17 02:06:34;;;;;;;3.90;3.53;;;4.70;99.90;;;4.58;68.65;95160.53;5062236;28;20561;-56
2023/03/17 02:09:01;;;;;;;4.07;3.60;;;4.70;99.90;;;4.59;68.37;95157.03;5068550;28;20880;-54
2023/03/17 02:11:29;;;;;;;3.60;3.30;;;4.70;99.90;;;4.59;68.57;95157.84;5068043;28;20458;-61
2023/03/17 02:13:56;;;;;;;3.90;3.60;;;4.70;99.90;;;4.60;68.32;95162.13;5066164;28;20512;-55
2023/03/17 02:16:23;;;;;;;4.40;4.00;;;4.80;99.90;;;4.60;67.75;95166.47;5073234;28;20454;-55
2023/03/17 02:18:51;;;;;;;3.17;2.90;;;4.80;99.90;;;4.58;67.67;95166.59;5060613;28;20451;-57
2023/03/17 02:21:40;;;;;;;3.73;3.43;;;4.80;99.90;;;4.56;68.47;95160.66;5064221;28;20895;-56
2023/03/17 02:24:16;;;;;;;3.97;3.67;;;4.70;99.90;;;4.56;69.09;95160.66;5074950;28;21088;-56
2023/03/17 02:26:44;;;;;;;3.93;3.10;;;4.80;99.90;;;4.57;68.42;95164.94;5065848;28;20557;-60
2023/03/17 02:29:11;;;;;;;3.57;3.27;;;4.70;99.90;;;4.57;68.57;95162.31;5066226;28;20505;-55
2023/03/17 02:31:39;;;;;;;3.23;3.03;;;4.70;99.90;;;4.59;68.48;95159.63;5068221;28;20458;-61
2023/03/17 02:34:07;;;;;;;3.40;3.10;;;4.70;99.90;;;4.61;68.58;95174.22;5069206;28;20930;-56
2023/03/17 02:36:36;;;;;;;3.30;2.77;;;4.80;99.90;;;4.62;68.50;95164.66;5070676;28;20470;-56
2023/03/17 02:39:04;;;;;;;3.47;3.17;;;4.80;99.90;;;4.63;68.66;95171.50;5066738;28;20530;-60
2023/03/17 02:41:31;;;;;;;3.30;3.10;;;4.80;99.90;;;4.64;68.84;95176.63;5068942;28;20447;-60
2023/03/17 02:43:58;;;;;;;4.13;3.20;;;4.80;99.90;;;4.64;68.74;95174.00;5068806;28;20502;-55
2023/03/17 02:46:25;;;;;;;4.73;3.37;;;4.80;99.90;;;4.66;68.65;95182.59;5070296;28;20516;-57
2023/03/17 02:48:53;;;;;;;3.10;2.90;;;4.80;99.90;;;4.65;68.54;95180.91;5076722;28;20455;-58
2023/03/17 02:51:20;;;;;;;4.63;3.77;;;4.80;99.90;;;4.68;68.49;95190.31;5073643;28;20565;-61
2023/03/17 02:53:49;;;;;;;3.30;3.10;;;4.80;99.90;;;4.71;68.42;95194.47;5067544;28;20455;-60
2023/03/17 02:56:16;;;;;;;3.40;3.10;;;4.90;99.90;;;4.71;68.12;95200.53;5078691;28;20910;-57
2023/03/17 02:58:43;;;;;;;4.40;3.43;;;4.90;99.90;;;4.71;68.21;95194.47;5072651;28;20976;-53
2023/03/17 03:01:10;;;;;;;3.00;2.90;;;4.80;99.90;;;4.71;68.24;95194.47;5067731;28;20849;-55
2023/03/17 03:03:38;;;;;;;3.37;3.07;;;4.80;99.90;;;4.70;68.19;95193.66;5074284;28;20493;-61
2023/03/17 03:06:06;;;;;;;3.67;3.43;;;4.80;99.90;;;4.70;68.21;95193.66;5076061;28;20885;-56
2023/03/17 03:08:33;;;;;;;2.80;2.60;;;4.90;99.90;;;4.71;68.10;95194.47;5069006;28;20485;-61
2023/03/17 03:11:03;;;;;;;3.00;2.80;;;4.90;99.90;;;4.71;67.98;95202.28;5060610;28;20462;-60
2023/03/17 03:13:31;;;;;;;3.63;3.20;;;4.90;99.90;;;4.72;68.25;95198.75;5062368;28;20474;-57
2023/03/17 03:15:59;;;;;;;3.00;2.80;;;4.90;99.90;;;4.73;68.23;95203.88;5059189;28;20538;-56
2023/03/17 03:18:26;;;;;;;3.10;2.90;;;4.90;99.90;;;4.74;68.36;95204.69;5064331;28;20527;-60
2023/03/17 03:20:53;;;;;;;4.80;3.50;;;4.90;99.90;;;4.72;68.32;95206.56;5075399;28;20852;-54
2023/03/17 03:23:20;;;;;;;3.00;2.80;;;4.90;99.90;;;4.74;68.50;95210.78;5071157;28;20499;-55
2023/03/17 03:25:48;;;;;;;3.20;3.00;;;4.90;99.90;;;4.74;68.41;95202.94;5068843;28;20522;-56
2023/03/17 03:28:16;;;;;;;3.70;3.50;;;4.90;99.90;;;4.75;68.25;95216.81;5075906;28;21166;-57
2023/03/17 03:30:44;;;;;;;4.17;3.77;;;4.90;99.90;;;4.74;68.22;95220.34;5078443;28;20830;-56
2023/03/17 03:33:12;;;;;;;3.40;3.20;;;4.90;99.90;;;4.73;68.18;95218.69;5069149;28;20505;-61
2023/03/17 03:35:39;;;;;;;3.10;2.93;;;4.90;99.90;;;4.72;68.21;95211.78;5080042;28;20454;-57
2023/03/17 03:38:07;;;;;;;3.50;3.30;;;4.90;99.90;;;4.72;68.41;95222.22;5078846;28;20589;-55
2023/03/17 03:40:34;;;;;;;5.03;3.97;;;4.90;99.90;;;4.71;68.02;95216.16;5070483;28;20443;-62
2023/03/17 03:43:02;;;;;;;5.40;4.20;;;4.90;99.90;;;4.74;68.23;95220.34;5076721;28;20466;-54
2023/03/17 03:45:30;;;;;;;4.33;3.80;;;4.90;99.90;;;4.74;67.82;95217.72;5079461;28;20462;-57
2023/03/17 03:47:57;;;;;;;11.27;5.87;;;4.90;99.90;;;4.75;67.60;95216.81;5075977;28;20474;-55
2023/03/17 03:50:25;;;;;;;11.93;6.33;;;4.90;99.90;;;4.75;67.77;95222.84;5069686;28;20451;-60
2023/03/17 03:52:52;;;;;;;9.60;6.03;;;4.90;99.90;;;4.75;67.47;95220.25;5083130;28;20523;-58
2023/03/17 03:55:19;;;;;;;5.00;4.43;;;4.90;99.90;;;4.74;67.66;95231.63;5074903;28;20607;-61
2023/03/17 03:57:47;;;;;;;5.47;4.97;;;4.90;99.90;;;4.75;67.81;95232.44;5066670;28;20470;-60
2023/03/17 04:00:16;;;;;;;5.90;4.83;;;4.90;99.90;;;4.74;67.67;95233.38;5076475;28;20962;-61
2023/03/17 04:02:45;;;;;;;5.90;5.13;;;4.90;99.90;;;4.73;67.58;95231.72;5078941;28;20506;-55
2023/03/17 04:05:13;;;;;;;7.20;4.00;;;4.90;99.90;;;4.71;67.46;95233.56;5069429;28;20603;-61
2023/03/17 04:07:41;;;;;;;4.03;3.73;;;4.90;99.90;;;4.71;67.85;95241.38;5076191;28;20702;-61
2023/03/17 04:10:10;;;;;;;6.80;4.17;;;4.90;99.90;;;4.69;67.57;95238.84;5074627;28;20487;-60
2023/03/17 04:12:38;;;;;;;7.60;4.13;;;4.80;99.90;;;4.69;68.15;95248.44;5066693;28;20590;-61
2023/03/17 04:15:10;;;;;;;5.63;4.77;;;4.80;99.90;;;4.67;67.79;95251.97;5070852;28;20534;-55
2023/03/17 04:17:37;;;;;;;4.10;3.70;;;4.80;99.90;;;4.69;67.90;95253.66;5075486;28;20502;-55
2023/03/17 04:20:07;;;;;;;6.00;4.67;;;4.80;99.90;;;4.69;67.92;95253.66;5074747;28;20828;-61
2023/03/17 04:22:34;;;;;;;4.17;3.87;;;4.80;99.90;;;4.67;68.00;95254.59;5065930;28;20539;-62
2023/03/17 04:25:02;;;;;;;5.53;4.67;;;4.80;99.90;;;4.67;68.00;95257.19;5082068;28;21111;-54
2023/03/17 04:27:29;;;;;;;3.90;3.60;;;4.80;99.90;;;4.67;67.59;95259.78;5070915;28;20478;-55
2023/03/17 04:29:57;;;;;;;3.70;3.40;;;4.80;99.90;;;4.67;67.58;95254.59;5068923;28;20831;-60
2023/03/17 04:32:24;;;;;;;3.73;3.30;;;4.80;99.90;;;4.65;67.93;95253.84;5069390;28;20473;-61
2023/03/17 04:34:51;;;;;;;6.00;4.33;;;4.80;99.90;;;4.68;67.85;95252.84;5069913;28;20524;-60
2023/03/17 04:37:20;;;;;;;3.90;3.60;;;4.80;99.90;;;4.66;67.78;95258.16;5068566;28;20756;-56
2023/03/17 04:39:47;;;;;;;5.27;4.77;;;4.80;99.90;;;4.67;67.67;95267.63;5071772;28;20462;-56
2023/03/17 04:42:15;;;;;;;7.00;5.10;;;4.80;99.90;;;4.67;67.77;95261.56;5071946;28;20485;-61
2023/03/17 04:44:42;;;;;;;5.23;4.73;;;4.80;99.90;;;4.65;67.89;95272.09;5067304;28;20504;-54
2023/03/17 04:47:10;;;;;;;3.80;3.50;;;4.80;99.90;;;4.66;67.89;95271.16;5071271;28;20505;-58
2023/03/17 04:49:37;;;;;;;3.63;3.30;;;4.80;99.90;;;4.68;67.99;95271.06;5072269;28;20451;-54
2023/03/17 04:52:05;;;;;;;3.80;3.57;;;4.80;99.90;;;4.70;67.87;95276.19;5061680;28;20481;-56
2023/03/17 04:54:35;;;;;;;4.87;3.80;;;4.80;99.90;;;4.73;68.06;95276.84;5067549;28;21036;-61
2023/03/17 04:57:02;;;;;;;3.70;3.30;;;4.90;99.90;;;4.75;67.86;95280.16;5077172;28;20552;-56
2023/03/17 04:59:29;;;;;;;5.17;4.33;;;4.90;99.90;;;4.77;67.46;95282.69;5072615;28;20453;-54
2023/03/17 05:01:57;;;;;;;4.83;4.43;;;4.90;99.90;;;4.78;67.97;95289.56;5062330;28;20881;-57
2023/03/17 05:04:24;;;;;;;4.17;3.87;;;4.90;99.90;;;4.80;67.81;95287.72;5069405;28;20490;-60
2023/03/17 05:06:51;;;;;;;4.37;4.00;;;4.90;99.90;;;4.81;67.60;95287.63;5068557;28;21106;-56
2023/03/17 05:09:19;;;;;;;6.47;5.00;;;4.90;99.90;;;4.82;67.73;95296.28;5062232;28;20463;-60
2023/03/17 05:11:47;;;;;;;4.90;4.00;;;5.00;99.90;;;4.83;67.77;95295.34;5067731;28;20528;-61
2023/03/17 05:14:15;;;;;;;6.37;4.63;;;5.00;99.90;;;4.82;67.68;95301.50;5072315;28;20465;-60
2023/03/17 05:16:42;;;;;;;3.73;3.43;;;5.00;99.90;;;4.84;67.65;95305.66;5057598;28;20992;-56
2023/03/17 05:19:10;;;;;;;3.13;2.93;;;5.00;99.90;;;4.87;67.51;95309.03;5073154;28;20856;-60
2023/03/17 05:21:37;;;;;;;4.47;4.13;;;5.00;99.90;;;4.89;67.47;95302.78;5073128;28;20471;-56
2023/03/17 05:24:05;;;;;;;6.50;3.80;;;5.00;99.90;;;4.92;67.52;95315.63;5064689;28;20903;-56
2023/03/17 05:26:32;;;;;;;4.67;4.27;;;5.10;99.90;;;4.94;67.81;95318.13;5061652;28;20880;-55
2023/03/17 05:29:01;;;;;;;4.30;3.90;;;5.00;99.90;;;4.95;67.55;95322.44;5063100;28;20450;-60
2023/03/17 05:31:28;;;;;;;4.80;4.27;;;5.10;99.90;;;4.96;67.42;95319.72;5065566;28;20459;-59
2023/03/17 05:33:55;;;;;;;6.30;4.20;;;5.10;99.90;;;4.99;67.83;95329.13;5055934;28;20944;-58
2023/03/17 05:36:23;;;;;;;3.80;3.60;;;5.10;99.90;;;4.97;67.49;95326.63;5072397;28;20442;-55
2023/03/17 05:38:51;;;;;;;8.10;3.77;;;5.10;99.90;;;5.01;67.13;95322.88;5068416;28;20960;-56
2023/03/17 05:41:18;;;;;;;3.53;3.00;;;5.10;99.90;;;5.03;67.02;95325.38;5060113;28;20452;-60
2023/03/17 05:43:45;;;;;;;4.50;3.33;;;5.10;99.90;;;5.00;66.82;95318.63;5074219;28;20450;-60
2023/03/17 05:46:14;;;;;;;4.10;3.33;;;5.10;99.90;;;5.02;66.61;95329.78;5065695;28;20461;-55
2023/03/17 05:48:41;;;;;;;4.10;3.80;;;5.10;99.90;;;5.04;67.00;95321.84;5061779;28;20473;-56
2023/03/17 05:51:09;;;;;;;3.80;3.50;;;5.20;99.90;;;5.07;66.77;95328.66;5070482;28;20439;-60
2023/03/17 05:53:37;;;;;;;4.23;2.70;;;5.20;99.90;;;5.09;66.78;95324.19;5078359;28;20551;-61
2023/03/17 05:56:05;;;;;;;3.60;3.30;;;5.20;99.90;;;5.11;66.43;95327.53;5072725;28;20463;-56
2023/03/17 05:58:32;;;;;;;3.80;3.50;;;5.20;99.90;;;5.12;66.13;95334.41;5065541;28;20498;-61
2023/03/17 06:00:59;;;;;;;5.17;3.90;;;5.20;99.90;;;5.13;66.62;95341.31;5078298;28;20447;-54
2023/03/17 06:03:28;;;;;;;5.50;3.93;;;5.20;99.90;;;5.14;66.53;95349.03;5074697;28;20483;-61
2023/03/17 06:05:55;;;;;;;6.23;4.27;;;5.30;99.90;;;5.16;66.25;95356.78;5067437;28;20544;-61
2023/03/17 06:08:23;;;;;;;7.00;4.93;;;5.30;99.90;;;5.18;66.31;95360.13;5076788;28;20468;-56
2023/03/17 06:10:50;;;;;;;4.50;4.10;;;5.30;99.90;;;5.21;66.16;95367.75;5071749;28;20455;-57
2023/03/17 06:13:17;;;;;;;5.80;5.00;;;5.30;99.90;;;5.21;66.28;95360.75;5070117;28;20481;-62
2023/03/17 06:15:45;;;;;;;4.27;3.97;;;5.40;99.90;;;5.25;66.20;95369.25;5074771;28;20454;-54
2023/03/17 06:18:12;;;;;;;3.93;3.33;;;5.40;99.90;;;5.25;65.83;95365.78;5075612;28;20474;-62
2023/03/17 06:20:40;;;;;;;3.70;3.20;;;5.40;99.90;;;5.28;66.25;95366.41;5071398;28;20454;-61
2023/03/17 06:23:08;;;;;;;4.50;3.60;;;5.40;99.90;;;5.31;66.41;95371.44;5073263;28;20485;-56
2023/03/17 06:25:35;;;;;;;5.23;3.53;;;5.40;99.90;;;5.35;66.19;95377.31;5076943;28;20485;-62
2023/03/17 06:28:04;;;;;;;5.27;4.77;;;5.50;99.90;;;5.39;66.13;95384.00;5071484;28;20478;-63
2023/03/17 06:30:32;;;;;;;4.83;4.43;;;5.50;99.90;;;5.43;66.33;95379.47;5066697;28;20521;-62
2023/03/17 06:33:00;;;;;;;6.00;5.40;;;5.50;99.90;;;5.47;66.26;95383.53;5075315;28;20524;-56
2023/03/17 06:35:27;;;;;;;6.20;5.73;;;5.60;99.90;;;5.51;66.80;95387.63;5074719;28;20451;-57
2023/03/17 06:37:56;;;;;;;5.40;4.73;;;5.60;99.90;;;5.55;66.29;95383.91;5067450;28;20471;-57
2023/03/17 06:40:23;;;;;;;8.13;7.33;;;5.70;99.90;;;5.59;66.15;95389.75;5072574;28;20457;-61
2023/03/17 06:42:50;;;;;;;81.33;33.30;;;5.70;99.90;;;5.63;66.67;95383.44;5069087;28;20472;-57
2023/03/17 06:45:17;;;;;;;28.27;18.13;;;5.80;99.90;;;5.67;66.22;95388.34;5050263;28;20914;-61
2023/03/17 06:47:45;;;;;;;12.13;9.93;;;5.80;99.90;;;5.71;66.05;95389.81;5071118;28;20466;-61
2023/03/17 06:50:12;;;;;;;11.13;9.70;;;5.80;99.90;;;5.77;66.56;95399.03;5064277;28;20499;-61
2023/03/17 06:52:40;;;;;;;4.60;4.27;;;5.90;99.90;;;5.83;66.12;95390.81;5064246;28;20537;-55
2023/03/17 06:55:10;;;;;;;5.70;3.87;;;5.90;99.90;;;5.86;65.94;95408.06;5065209;28;21021;-61
2023/03/17 06:57:37;;;;;;;3.63;3.20;;;6.00;99.90;;;5.91;65.62;95403.38;5071858;28;20515;-56
2023/03/17 07:00:06;;;;;;;4.03;3.63;;;6.00;99.90;;;5.92;65.09;95402.44;5059802;28;20991;-62
2023/03/17 07:02:33;;;;;;;3.50;3.10;;;6.00;99.90;;;5.92;64.69;95402.44;5050863;28;20592;-55
2023/03/17 07:05:01;;;;;;;3.47;3.17;;;6.00;99.90;;;5.90;64.68;95406.91;5076905;28;20585;-61
2023/03/17 07:07:28;;;;;;;3.40;3.20;;;6.00;99.90;;;5.86;64.23;95403.66;5061781;28;20481;-57
2023/03/17 07:09:56;;;;;;;4.10;3.70;;;6.00;99.90;;;5.85;65.00;95401.16;5058733;28;20475;-61
2023/03/17 07:12:24;;;;;;;3.93;3.50;;;6.00;99.90;;;5.85;64.78;95395.94;5073965;28;20478;-55
2023/03/17 07:14:52;;;;;;;4.47;2.90;;;5.90;99.90;;;5.86;64.99;95398.44;5072310;28;20455;-55
2023/03/17 07:17:19;;;;;;;3.63;3.37;;;6.00;99.90;;;5.90;65.36;95402.56;5056587;28;20472;-55
2023/03/17 07:19:47;;;;;;;5.90;3.00;;;6.00;99.90;;;5.95;64.87;95402.25;5072792;28;20615;-56
2023/03/17 07:22:14;;;;;;;4.33;3.90;;;6.00;99.90;;;6.00;65.14;95410.66;5067824;28;20479;-58
2023/03/17 07:24:42;;;;;;;5.40;4.90;;;6.10;99.90;;;6.06;65.06;95407.66;5064990;28;20494;-62
2023/03/17 07:27:09;;;;;;;4.00;3.70;;;6.10;99.90;;;6.13;65.04;95408.09;5063553;28;20470;-57
2023/03/17 07:29:38;;;;;;;3.50;3.20;;;6.20;99.90;;;6.16;65.10;95407.06;5062870;28;20478;-54
2023/03/17 07:32:07;;;;;;;3.83;3.53;;;6.30;99.90;;;6.27;66.33;95415.03;5070859;28;20489;-57
2023/03/17 07:34:34;;;;;;;5.03;2.67;;;6.40;99.90;;;6.39;65.38;95416.00;5067051;28;20540;-56
2023/03/17 07:37:01;;;;;;;4.13;3.70;;;6.50;99.90;;;6.48;65.18;95414.56;5078389;28;20463;-62
2023/03/17 07:39:29;;;;;;;4.20;3.77;;;6.50;99.90;;;6.55;65.07;95411.44;5073539;28;20524;-63
2023/03/17 07:41:56;;;;;;;3.80;3.40;;;6.60;99.90;;;6.61;63.65;95412.81;5067355;28;20479;-57
2023/03/17 07:44:24;;;;;;;3.83;3.40;;;6.70;99.90;;;6.64;63.73;95425.66;5079925;28;20485;-61
2023/03/17 07:46:52;;;;;;;7.60;3.20;;;6.70;99.90;;;6.67;64.42;95420.22;5073520;28;20577;-58
2023/03/17 07:49:20;;;;;;;5.20;4.20;;;6.80;99.90;;;6.75;64.23;95423.16;5068847;28;20528;-61
2023/03/17 07:51:48;;;;;;;11.33;3.20;;;6.80;99.90;;;6.80;63.49;95428.09;5071797;28;21224;-56
2023/03/17 07:54:15;;;;;;;4.80;3.27;;;6.90;99.90;;;6.85;63.53;95419.94;5076234;28;20451;-62
2023/03/17 07:56:43;;;;;;;5.40;4.30;;;6.90;99.90;;;6.90;63.57;95423.09;5070533;28;20498;-61
2023/03/17 07:59:10;;;;;;;4.53;4.13;;;7.00;99.90;;;6.96;62.75;95420.06;5067998;28;20453;-55
2023/03/17 08:01:38;;;;;;;5.20;3.30;;;7.00;99.90;;;7.02;63.09;95430.09;5076318;28;20482;-61
2023/03/17 08:04:09;;;;;;;2.67;2.57;;;7.10;99.90;;;7.06;62.29;95428.94;5070151;28;20455;-64
2023/03/17 08:06:37;;;;;;;3.50;2.43;;;7.10;99.90;;;7.11;61.71;95434.72;5070029;28;20633;-62
2023/03/17 08:09:04;;;;;;;3.40;2.97;;;7.20;99.60;;;7.14;61.31;95434.50;5081412;28;20545;-54
2023/03/17 08:11:32;;;;;;;3.23;3.03;;;7.20;98.90;;;7.17;61.42;95433.44;5076202;28;20548;-57
2023/03/17 08:14:00;;;;;;;3.03;2.77;;;7.30;99.10;;;7.22;62.02;95428.75;5071160;28;20511;-62
2023/03/17 08:16:27;;;;;;;4.13;2.77;;;7.30;99.70;;;7.28;62.16;95437.94;5080962;28;20450;-61
2023/03/17 08:18:56;;;;;;;2.80;2.50;;;7.30;99.40;;;7.32;60.53;95437.63;5078714;28;20813;-56
2023/03/17 08:21:25;;;;;;;2.70;2.50;;;7.40;98.10;;;7.34;61.21;95429.66;5071770;28;20477;-61
2023/03/17 08:23:52;;;;;;;4.70;3.20;;;7.40;98.80;;;7.39;61.29;95438.06;5078061;28;20450;-61
2023/03/17 08:26:19;;;;;;;3.63;3.33;;;7.40;99.40;;;7.45;61.29;95442.84;5077193;28;20542;-56
2023/03/17 08:28:47;;;;;;;3.70;3.40;;;7.50;99.10;;;7.51;61.30;95431.97;5073515;28;20446;-56
2023/03/17 08:31:16;;;;;;;10.90;4.03;;;7.60;99.20;;;7.56;59.65;95430.78;5070742;28;20532;-55
2023/03/17 08:33:46;;;;;;;47.27;5.90;;;7.60;97.50;;;7.54;58.80;95431.75;5079417;28;20456;-61
2023/03/17 08:36:13;;;;;;;5.10;3.30;;;7.60;96.90;;;7.49;59.71;95423.38;5072880;28;20450;-56
2023/03/17 08:38:42;;;;;;;15.17;4.07;;;7.60;97.10;;;7.48;60.42;95426.94;5068142;28;20954;-61
2023/03/17 08:41:12;;;;;;;3.97;3.13;;;7.60;97.90;;;7.51;59.53;95423.25;5072898;28;20530;-56
2023/03/17 08:43:39;;;;;;;3.80;3.40;;;7.60;97.40;;;7.52;59.03;95430.16;5076101;28;20466;-61
2023/03/17 08:46:08;;;;;;;29.80;5.70;;;7.60;97.20;;;7.54;59.31;95431.75;5070059;28;20563;-60
2023/03/17 08:48:36;;;;;;;5.00;3.80;;;7.60;97.30;;;7.58;59.02;95439.38;5079269;28;20462;-61
2023/03/17 08:51:04;;;;;;;13.80;7.40;;;7.60;97.00;;;7.60;59.60;95425.22;5076299;28;20546;-61
2023/03/17 08:53:31;;;;;;;7.10;3.93;;;7.70;97.20;;;7.63;59.84;95429.41;5071376;28;20479;-62
2023/03/17 08:56:00;;;;;;;6.17;4.40;;;7.70;97.50;;;7.64;59.20;95426.69;5074471;28;20462;-61
2023/03/17 08:58:28;;;;;;;5.93;4.07;;;7.80;97.40;;;7.71;59.54;95437.56;5075069;28;20836;-54
2023/03/17 09:00:59;;;;;;;6.60;4.20;;;7.80;97.30;;;7.75;58.53;95436.41;5072785;28;20451;-61
2023/03/17 09:03:26;;;;;;;4.37;4.00;;;7.80;96.50;;;7.77;58.51;95438.91;5073278;28;20531;-56
2023/03/17 09:05:53;;;;;;;7.93;5.00;;;7.80;96.30;;;7.79;58.71;95435.25;5080172;28;20486;-62
2023/03/17 09:08:21;;;;;;;7.47;5.20;;;7.90;97.00;;;7.85;59.47;95437.44;5071396;28;20502;-61
2023/03/17 09:10:48;;;;;;;12.73;7.57;;;7.90;97.30;;;7.92;58.91;95439.59;5062878;28;20450;-56
2023/03/17 09:13:17;;;;;;;4.53;4.13;;;8.00;96.80;;;7.96;58.83;95436.66;5076585;28;21032;-55
2023/03/17 09:15:45;;;;;;;4.53;4.13;;;8.00;96.90;;;8.01;57.29;95438.94;5065737;28;20504;-61
2023/03/17 09:18:13;;;;;;;5.80;3.83;;;8.10;95.60;;;8.05;58.44;95445.63;5064280;28;20909;-55
2023/03/17 09:20:40;;;;;;;4.20;3.80;;;8.10;96.60;;;8.12;58.48;95440.78;5077429;28;20493;-54
2023/03/17 09:23:08;;;;;;;5.80;4.70;;;8.20;96.50;;;8.17;57.15;95436.06;5064682;28;20471;-56
2023/03/17 09:25:36;;;;;;;4.23;3.83;;;8.20;95.40;;;8.19;57.93;95448.09;5060582;28;20491;-60
2023/03/17 09:28:03;;;;;;;6.93;5.07;;;8.30;95.70;;;8.22;57.40;95442.63;5068440;28;20482;-61
2023/03/17 09:30:32;;;;;;;7.93;3.77;;;8.30;95.50;;;8.27;57.92;95434.44;5077242;28;20630;-60
2023/03/17 09:33:00;;;;;;;5.17;4.13;;;8.30;96.10;;;8.37;57.97;95440.69;5070624;28;20562;-56
2023/03/17 09:35:28;;;;;;;9.47;4.73;;;8.40;96.40;;;8.43;56.96;95444.66;5075459;28;20496;-60
2023/03/17 09:37:55;;;;;;;5.67;4.23;;;8.50;95.60;;;8.51;57.55;95438.88;5079615;28;20475;-60
2023/03/17 09:40:27;;;;;;;3.90;3.30;;;8.50;96.00;;;8.55;56.77;95446.41;5069693;28;20967;-56
2023/03/17 09:43:01;;;;;;;6.90;3.57;;;8.60;95.10;;;8.57;57.02;95444.50;5070407;28;20475;-55
2023/03/17 09:45:34;;;;;;;9.23;3.30;;;8.60;94.90;;;8.63;57.23;95445.84;5079045;28;20527;-57
2023/03/17 09:48:36;;;;;;;8.33;3.90;;;8.70;95.40;;;8.69;55.23;95444.53;5069461;28;20459;-62
2023/03/17 09:51:05;;;;;;;6.30;3.50;;;8.70;94.00;;;8.70;55.62;95451.47;5067957;28;20449;-60
2023/03/17 09:53:34;;;;;;;14.33;3.83;;;8.80;93.70;;;8.67;54.63;95454.31;5079568;28;20482;-57
2023/03/17 09:56:07;;;;;;;3.37;3.10;;;8.70;92.90;;;8.63;54.06;95450.22;5072459;28;20482;-55
2023/03/17 09:58:35;;;;;;;6.67;4.90;;;8.70;92.10;;;8.61;55.74;95450.34;5069931;28;20463;-56
2023/03/17 10:01:04;;;;;;;6.60;5.90;;;8.70;93.40;;;8.63;55.17;95451.09;5078658;28;20541;-60
2023/03/17 10:03:31;;;;;;;2.93;2.70;;;8.70;93.30;;;8.60;52.03;95452.13;5072173;28;20475;-61
2023/03/17 10:06:12;;;;;;;3.67;3.47;;;8.70;90.60;;;8.58;54.13;95453.19;5068490;28;20498;-60
2023/03/17 10:08:40;;;;;;;3.27;3.00;;;8.70;91.70;;;8.57;54.99;95452.38;5077607;28;20962;-57
2023/03/17 10:11:11;;;;;;;3.57;3.00;;;8.60;92.70;;;8.61;55.05;95452.97;5073593;28;20539;-56
2023/03/17 10:13:49;;;;;;;6.80;2.90;;;8.70;92.90;;;8.64;54.46;95449.28;5069007;28;20516;-57
2023/03/17 10:16:19;;;;;;;4.13;2.23;;;8.70;92.20;;;8.64;54.03;95447.50;5078208;28;20447;-62
2023/03/17 10:18:50;;;;;;;3.27;2.70;;;8.70;91.70;;;8.66;53.87;95448.25;5074680;28;20462;-60
2023/03/17 10:21:20;;;;;;;3.10;2.90;;;8.70;91.70;;;8.68;52.51;95442.88;5070550;28;20803;-61
2023/03/17 10:23:47;;;;;;;4.63;3.33;;;8.70;90.50;;;8.69;53.45;95441.91;5069303;28;20464;-57
2023/03/17 10:26:24;;;;;;;2.73;2.53;;;8.70;91.00;;;8.72;53.19;95439.06;5076901;28;20492;-60
2023/03/17 10:28:52;;;;;;;2.40;2.20;;;8.80;91.60;;;8.71;51.29;95442.66;5066946;28;20442;-56
2023/03/17 10:31:26;;;;;;;3.00;2.50;;;8.80;87.90;;;8.67;53.42;95441.19;5068216;28;20530;-55
2023/03/17 10:33:54;;;;;;;6.50;2.63;;;8.80;90.70;;;8.66;52.25;95436.88;5073816;28;20581;-60
2023/03/17 10:36:33;;;;;;;2.60;2.30;;;8.70;90.10;;;8.69;52.10;95442.75;5066581;28;20542;-61
2023/03/17 10:39:04;;;;;;;2.77;1.87;;;8.80;90.10;;;8.70;51.94;95439.19;5054804;28;20450;-61